Time;durP1;ratioP1;P1;durP2;ratioP2;P2;SDS_P1;SDS_P2;PMS_P1;PMS_P2;Temp;Humidity;BMP_temperature;BMP_pressure;BME280_temperature;BME280_humidity;BME280_pressure;Samples;Min_cycle;Max_cycle;Signal;HPM_P1;HPM_P2
2022/10/31 00:00:08;;;;;;;26.23;16.80;;;;;;;40.14;100.00;91224.43;1460840;87;21572;-83
2022/10/31 00:02:34;;;;;;;26.97;15.85;;;;;;;40.15;100.00;91189.98;1519054;87;21540;-82
2022/10/31 00:05:00;;;;;;;25.53;14.57;;;;;;;40.14;100.00;91256.84;1455476;89;21518;-83
2022/10/31 00:07:26;;;;;;;24.57;16.83;;;;;;;40.14;100.00;91253.98;1458331;87;21419;-81
2022/10/31 00:09:52;;;;;;;25.03;15.30;;;;;;;40.14;100.00;91256.84;1461834;87;21488;-83
2022/10/31 00:12:18;;;;;;;24.93;15.80;;;;;;;40.14;100.00;91265.38;1469628;88;21481;-82
2022/10/31 00:14:44;;;;;;;20.07;13.83;;;;;;;40.11;100.00;91439.00;1479076;87;21537;-81
2022/10/31 00:17:10;;;;;;;21.00;13.43;;;;;;;40.07;100.00;91612.50;1467464;87;22369;-82
2022/10/31 00:19:36;;;;;;;25.67;16.97;;;;;;;40.05;100.00;91724.00;1455460;87;21489;-80
2022/10/31 00:22:02;;;;;;;22.07;13.40;;;;;;;40.06;100.00;91690.64;1453163;87;21482;-81
2022/10/31 00:24:28;;;;;;;20.03;13.03;;;;;;;40.08;100.00;91584.88;1465166;87;22372;-81
2022/10/31 00:26:54;;;;;;;26.10;13.67;;;;;;;40.11;100.00;91430.45;1458624;87;21958;-83
2022/10/31 00:29:20;;;;;;;20.27;12.93;;;;;;;40.12;100.00;91353.20;1443332;90;22524;-85
2022/10/31 00:31:46;;;;;;;23.57;15.20;;;;;;;40.14;100.00;91221.59;1447702;88;21567;-82
2022/10/31 00:34:12;;;;;;;25.90;14.17;;;;;;;40.15;100.00;91150.12;1445711;88;21400;-85
2022/10/31 00:36:38;;;;;;;20.37;14.37;;;;;;;40.15;100.00;91155.81;1474813;87;22263;-83
2022/10/31 00:39:04;;;;;;;20.53;14.73;;;;;;;40.13;100.00;91261.70;1468177;87;21429;-86
2022/10/31 00:41:30;;;;;;;24.30;14.97;;;;;;;40.12;100.00;91326.14;1461235;87;21488;-84
2022/10/31 00:43:56;;;;;;;19.47;14.53;;;;;;;40.12;100.00;91353.32;1465226;88;21400;-78
2022/10/31 00:46:22;;;;;;;19.37;12.53;;;;;;;40.11;100.00;91399.11;1449758;88;21415;-84
2022/10/31 00:48:48;;;;;;;16.57;10.60;;;;;;;40.09;100.00;91481.08;1453721;90;21422;-83
2022/10/31 00:51:14;;;;;;;15.07;9.47;;;;;;;40.11;100.00;91410.52;1456699;88;21516;-79
2022/10/31 00:53:40;;;;;;;14.63;9.83;;;;;;;40.11;100.00;91404.81;1454871;88;21523;-80
2022/10/31 00:56:07;;;;;;;14.37;9.97;;;;;;;40.13;100.00;91270.25;1454222;87;21981;-83
2022/10/31 00:58:33;;;;;;;14.47;9.63;;;;;;;40.13;100.00;91285.56;1458483;87;21458;-81
2022/10/31 01:00:59;;;;;;;14.23;9.67;;;;;;;40.07;100.00;91595.47;1452153;88;21400;-80
2022/10/31 01:03:29;;;;;;;19.30;11.77;;;;;;;40.02;100.00;91846.89;1458968;88;22580;-81
2022/10/31 01:06:02;;;;;;;14.27;10.30;;;;;;;39.99;100.00;92018.16;1431298;88;21546;-81
2022/10/31 01:08:29;;;;;;;14.20;9.97;;;;;;;39.98;100.00;92045.76;1458066;88;21441;-79
2022/10/31 01:11:09;;;;;;;16.67;11.63;;;;;;;40.00;100.00;91971.55;1456829;88;21530;-78
2022/10/31 01:13:35;;;;;;;19.67;11.80;;;;;;;40.01;100.00;91918.27;1470280;88;21611;-80
2022/10/31 01:16:05;;;;;;;19.23;12.17;;;;;;;40.01;100.00;91898.28;1461016;88;21611;-79
2022/10/31 01:18:32;;;;;;;21.03;13.27;;;;;;;40.04;100.00;91777.37;1396578;88;21390;-81
2022/10/31 01:21:06;;;;;;;20.33;13.67;;;;;;;40.06;100.00;91615.49;1548698;88;21331;-81
2022/10/31 01:23:32;;;;;;;20.03;13.83;;;;;;;40.08;100.00;91550.68;1508941;88;21430;-80
2022/10/31 01:26:19;;;;;;;18.33;13.13;;;;;;;40.09;100.00;91469.67;1444477;88;21406;-79
2022/10/31 01:28:52;;;;;;;22.33;12.60;;;;;;;40.09;100.00;91466.83;1461834;88;22715;-82
2022/10/31 01:31:22;;;;;;;20.73;12.97;;;;;;;40.09;100.00;91499.22;1452767;88;21526;-83
2022/10/31 01:33:48;;;;;;;22.90;12.90;;;;;;;40.08;100.00;91547.82;1459944;88;23249;-80
2022/10/31 01:36:25;;;;;;;19.77;12.60;;;;;;;40.08;100.00;91544.97;1440822;90;21445;-82
2022/10/31 01:38:55;;;;;;;25.03;15.17;;;;;;;40.12;100.00;91330.42;1455086;88;21489;-82
2022/10/31 01:41:27;;;;;;;21.27;13.73;;;;;;;40.09;100.00;91487.81;1468612;88;21805;-80
2022/10/31 01:44:01;;;;;;;21.63;14.13;;;;;;;40.08;100.00;91518.30;1488680;88;21541;-81
2022/10/31 01:46:33;;;;;;;23.37;14.97;;;;;;;40.07;100.00;91564.05;1467079;89;22069;-82
2022/10/31 01:49:02;;;;;;;25.77;14.97;;;;;;;40.08;100.00;91542.13;1450328;89;22199;-80
2022/10/31 01:51:34;;;;;;;21.97;15.57;;;;;;;40.08;100.00;91504.05;1444164;89;22491;-82
2022/10/31 01:54:05;;;;;;;28.50;15.87;;;;;;;40.09;100.00;91476.41;1445231;88;22494;-80
2022/10/31 01:56:34;;;;;;;23.20;14.97;;;;;;;40.10;100.00;91427.80;1446088;89;21502;-80
2022/10/31 01:59:03;;;;;;;22.93;15.43;;;;;;;40.10;100.00;91416.39;1378314;90;22104;-80
2022/10/31 02:01:30;;;;;;;27.97;15.77;;;;;;;40.10;100.00;91434.92;1384597;90;21489;-80
2022/10/31 02:03:56;;;;;;;22.53;14.17;;;;;;;40.09;100.00;91429.78;1460832;88;21495;-83
2022/10/31 02:06:39;;;;;;;21.60;14.30;;;;;;;40.08;100.00;91489.80;1457802;88;21569;-79
2022/10/31 02:09:06;;;;;;;23.10;14.27;;;;;;;40.11;100.00;91344.88;1442304;89;21541;-82
2022/10/31 02:11:35;;;;;;;25.23;14.43;;;;;;;40.11;100.00;91350.56;1439020;88;22413;-79
2022/10/31 02:14:03;;;;;;;21.37;14.70;;;;;;;40.11;100.00;91347.72;1450787;88;23661;-81
2022/10/31 02:16:29;;;;;;;21.87;15.37;;;;;;;40.12;100.00;91279.03;1453231;88;21599;-83
2022/10/31 02:18:57;;;;;;;18.90;13.57;;;;;;;40.10;100.00;91433.50;1451920;89;21559;-82
2022/10/31 02:21:28;;;;;;;25.30;15.37;;;;;;;40.10;100.00;91403.95;1450115;90;21481;-80
2022/10/31 02:24:40;;;;;;;27.03;16.43;;;;;;;40.10;100.00;91395.40;1446435;88;21515;-79
2022/10/31 02:27:57;;;;;;;21.97;13.13;;;;;;;40.09;100.00;91459.26;1453105;88;21987;-79
2022/10/31 02:30:27;;;;;;;21.73;13.83;;;;;;;40.08;100.00;91495.48;1454309;88;21489;-78
2022/10/31 02:33:27;;;;;;;21.05;14.28;;;;;;;40.09;100.00;91467.86;1452531;88;21548;-79
2022/10/31 02:36:13;;;;;;;20.35;13.30;;;;;;;40.09;100.00;91467.86;1454292;88;21414;-79
2022/10/31 02:39:04;;;;;;;20.57;12.87;;;;;;;40.08;100.00;91492.64;1455639;88;23535;-81
2022/10/31 02:41:47;;;;;;;20.30;13.38;;;;;;;40.06;100.00;91584.14;1455161;88;21445;-82
2022/10/31 02:44:34;;;;;;;19.70;13.47;;;;;;;40.05;100.00;91678.39;1452632;90;21984;-81
2022/10/31 02:47:21;;;;;;;22.77;15.13;;;;;;;40.01;100.00;91892.61;1448496;88;21614;-79
2022/10/31 02:50:08;;;;;;;24.63;14.73;;;;;;;39.99;100.00;92001.06;1445317;90;21510;-82
2022/10/31 02:52:35;;;;;;;21.17;12.33;;;;;;;39.97;100.00;92117.08;1449865;88;21659;-82
2022/10/31 02:55:24;;;;;;;19.60;14.07;;;;;;;39.97;100.00;92092.36;1447587;89;22340;-82
2022/10/31 02:58:02;;;;;;;18.40;12.60;;;;;;;39.97;100.00;92072.40;1463186;88;22524;-82
2022/10/31 03:00:34;;;;;;;18.63;13.47;;;;;;;39.97;100.00;92117.08;1453150;88;21525;-84
2022/10/31 03:03:17;;;;;;;18.37;12.53;;;;;;;39.97;100.00;92125.64;1442469;89;22243;-83
2022/10/31 03:06:04;;;;;;;19.87;12.90;;;;;;;39.97;100.00;92078.09;1376320;89;21446;-83
2022/10/31 03:08:47;;;;;;;21.63;13.63;;;;;;;39.97;100.00;92115.66;1472704;87;22685;-82
2022/10/31 03:11:14;;;;;;;21.30;14.17;;;;;;;39.95;100.00;92201.69;1426409;90;21451;-83
2022/10/31 03:13:51;;;;;;;20.27;13.33;;;;;;;39.94;100.00;92236.84;1446726;89;22060;-84
2022/10/31 03:16:26;;;;;;;19.00;14.10;;;;;;;39.94;100.00;92254.89;1438198;88;22538;-84
2022/10/31 03:18:59;;;;;;;22.77;12.33;;;;;;;39.91;100.00;92381.23;1452501;88;21488;-82
2022/10/31 03:21:31;;;;;;;16.73;12.73;;;;;;;39.90;100.00;92492.36;1458024;88;21610;-82
2022/10/31 03:23:59;;;;;;;18.90;12.77;;;;;;;39.90;100.00;92443.94;1444603;89;22173;-84
2022/10/31 03:26:26;;;;;;;20.43;11.73;;;;;;;39.90;100.00;92495.21;1422998;88;21488;-83
2022/10/31 03:29:04;;;;;;;19.23;11.53;;;;;;;39.91;100.00;92424.02;1436434;88;22398;-81
2022/10/31 03:31:35;;;;;;;18.67;12.70;;;;;;;39.90;100.00;92498.06;1455534;88;22614;-81
2022/10/31 03:34:03;;;;;;;19.53;12.73;;;;;;;39.88;100.00;92568.30;1467362;88;21539;-81
2022/10/31 03:36:32;;;;;;;21.20;13.67;;;;;;;39.85;100.00;92761.92;1466828;88;22353;-84
2022/10/31 03:39:02;;;;;;;19.13;13.97;;;;;;;39.81;100.00;92954.36;1472954;88;21451;-83
2022/10/31 03:41:32;;;;;;;22.73;13.80;;;;;;;39.80;100.00;93020.64;1474008;88;21415;-81
2022/10/31 03:44:07;;;;;;;21.75;13.83;;;;;;;39.79;100.00;93038.62;1503407;88;21598;-81
2022/10/31 03:46:33;;;;;;;17.13;11.63;;;;;;;39.80;100.00;93005.53;1457614;88;21451;-83
2022/10/31 03:48:59;;;;;;;23.30;12.47;;;;;;;39.80;100.00;93014.11;1469355;88;22576;-85
2022/10/31 03:51:34;;;;;;;23.63;14.07;;;;;;;39.80;100.00;93019.81;1460596;88;21702;-85
2022/10/31 03:54:32;;;;;;;18.60;12.43;;;;;;;39.83;100.00;92853.02;1470013;88;22454;-83
2022/10/31 03:57:10;;;;;;;20.93;13.07;;;;;;;39.83;100.00;92841.59;1462739;88;21628;-84
2022/10/31 03:59:41;;;;;;;20.97;13.37;;;;;;;39.87;100.00;92636.67;1417871;91;22037;-83
2022/10/31 04:02:13;;;;;;;19.77;13.50;;;;;;;39.87;100.00;92648.98;1405941;88;21459;-80
2022/10/31 04:04:39;;;;;;;20.50;12.93;;;;;;;39.86;100.00;92676.51;1447788;88;21621;-83
2022/10/31 04:07:08;;;;;;;20.93;13.37;;;;;;;39.84;100.00;92761.83;1454754;88;21400;-83
2022/10/31 04:09:38;;;;;;;20.23;13.23;;;;;;;39.82;100.00;92884.13;1448372;88;21444;-84
2022/10/31 04:12:08;;;;;;;25.50;14.18;;;;;;;39.78;100.00;93129.59;1453937;89;21570;-81
2022/10/31 04:14:38;;;;;;;16.77;11.40;;;;;;;39.76;100.00;93223.36;1470996;88;23483;-80
2022/10/31 04:17:09;;;;;;;22.58;13.35;;;;;;;39.73;100.00;93384.17;1468561;88;21430;-84
2022/10/31 04:19:35;;;;;;;22.77;13.97;;;;;;;39.73;100.00;93368.13;1456654;88;21592;-79
2022/10/31 04:22:02;;;;;;;21.80;13.50;;;;;;;39.76;100.00;93203.36;1473842;88;22382;-84
2022/10/31 04:24:28;;;;;;;20.53;14.13;;;;;;;39.79;100.00;93076.57;1471941;88;21495;-83
2022/10/31 04:26:54;;;;;;;20.40;14.13;;;;;;;39.77;100.00;93167.45;1471371;88;22294;-84
2022/10/31 04:29:20;;;;;;;21.07;14.40;;;;;;;39.79;100.00;93052.91;1466932;88;21408;-82
2022/10/31 04:31:46;;;;;;;23.57;15.57;;;;;;;39.80;100.00;93002.68;1467141;88;21481;-83
2022/10/31 04:34:12;;;;;;;24.10;14.50;;;;;;;39.78;100.00;93135.36;1456996;88;21504;-80
2022/10/31 04:36:38;;;;;;;23.87;15.07;;;;;;;39.81;100.00;92962.92;1454711;88;21502;-79
2022/10/31 04:39:04;;;;;;;22.90;14.83;;;;;;;39.81;100.00;92999.95;1455569;88;21467;-80
2022/10/31 04:41:30;;;;;;;21.80;14.00;;;;;;;39.81;100.00;92961.08;1463973;88;22413;-79
2022/10/31 04:43:56;;;;;;;27.50;15.03;;;;;;;39.79;100.00;93089.42;1466109;88;21789;-82
2022/10/31 04:46:22;;;;;;;22.47;14.10;;;;;;;39.79;100.00;93099.42;1466347;88;21466;-82
2022/10/31 04:48:49;;;;;;;18.53;13.07;;;;;;;39.80;100.00;93057.77;1460319;88;21801;-81
2022/10/31 04:51:15;;;;;;;22.23;14.00;;;;;;;39.80;100.00;93063.49;1461685;88;22397;-86
2022/10/31 04:53:41;;;;;;;21.47;12.47;;;;;;;39.79;100.00;93112.28;1472477;88;21518;-81
2022/10/31 04:56:07;;;;;;;19.47;13.20;;;;;;;39.81;100.00;93008.50;1463927;88;21495;-83
2022/10/31 04:58:33;;;;;;;24.77;14.57;;;;;;;39.82;100.00;92944.09;1450550;88;21625;-82
2022/10/31 05:00:59;;;;;;;22.13;14.33;;;;;;;39.80;100.00;93072.05;1455050;88;21444;-83
2022/10/31 05:03:25;;;;;;;24.33;14.17;;;;;;;39.80;100.00;93066.34;1449778;88;21423;-82
2022/10/31 05:05:51;;;;;;;28.33;16.87;;;;;;;39.81;100.00;93017.08;1459742;88;21451;-84
2022/10/31 05:08:17;;;;;;;29.10;17.00;;;;;;;39.80;100.00;93054.92;1465359;88;21458;-84
2022/10/31 05:10:43;;;;;;;24.50;14.57;;;;;;;39.77;100.00;93184.59;1453648;88;21481;-87
2022/10/31 05:13:09;;;;;;;25.43;13.60;;;;;;;39.76;100.00;93277.48;1448635;89;22114;-82
2022/10/31 05:15:35;;;;;;;21.50;14.03;;;;;;;39.75;100.00;93305.91;1452650;90;22390;-84
2022/10/31 05:18:01;;;;;;;23.57;14.50;;;;;;;39.76;100.00;93259.07;1453634;90;22206;-85
2022/10/31 05:20:30;;;;;;;21.67;14.57;;;;;;;39.77;100.00;93207.44;1443721;88;22058;-88
2022/10/31 05:22:57;;;;;;;24.03;13.10;;;;;;;39.76;100.00;93245.41;1399939;88;21383;-84
2022/10/31 05:25:27;;;;;;;23.70;14.23;;;;;;;39.76;100.00;93232.55;1454363;88;21553;-82
2022/10/31 05:27:55;;;;;;;29.53;17.00;;;;;;;39.76;100.00;93242.55;1380993;88;21452;-81
2022/10/31 05:30:25;;;;;;;29.43;17.97;;;;;;;39.74;100.00;93398.78;1367477;90;21316;-84
2022/10/31 05:32:52;;;;;;;25.80;17.12;;;;;;;39.71;100.00;93552.07;1542253;88;21362;-83
2022/10/31 05:35:28;;;;;;;31.57;17.97;;;;;;;39.65;100.00;93846.02;1455083;88;22337;-83
2022/10/31 05:37:55;;;;;;;28.20;16.93;;;;;;;39.65;100.00;93879.17;1450037;88;21493;-84
2022/10/31 05:40:22;;;;;;;24.50;15.50;;;;;;;39.64;100.00;93907.53;1454016;88;21987;-82
2022/10/31 05:42:54;;;;;;;32.57;17.93;;;;;;;39.67;100.00;93781.86;1473183;88;22420;-85
2022/10/31 05:45:22;;;;;;;29.53;20.20;;;;;;;39.69;100.00;93682.61;1416797;88;21578;-82
2022/10/31 05:47:57;;;;;;;31.83;21.10;;;;;;;39.71;100.00;93544.63;1399016;88;21437;-85
2022/10/31 05:50:26;;;;;;;36.30;22.53;;;;;;;39.73;100.00;93467.03;1478086;88;21543;-85
2022/10/31 05:53:02;;;;;;;34.57;22.37;;;;;;;39.76;100.00;93340.34;1458306;88;21532;-84
2022/10/31 05:55:30;;;;;;;26.03;17.80;;;;;;;39.77;100.00;93247.52;1470062;88;21613;-83
2022/10/31 05:57:57;;;;;;;33.33;20.07;;;;;;;39.79;100.00;93141.45;1466159;88;21436;-87
2022/10/31 06:00:26;;;;;;;25.10;17.03;;;;;;;39.80;100.00;93111.22;1459884;88;21670;-83
2022/10/31 06:03:01;;;;;;;24.13;16.50;;;;;;;39.80;100.00;93096.94;1456807;88;21445;-83
2022/10/31 06:05:28;;;;;;;25.57;15.97;;;;;;;39.80;100.00;93137.75;1449992;90;22318;-83
2022/10/31 06:07:54;;;;;;;21.67;14.67;;;;;;;39.76;100.00;93343.35;1447443;90;21444;-85
2022/10/31 06:10:20;;;;;;;24.30;17.00;;;;;;;39.76;100.00;93340.48;1458698;88;21369;-83
2022/10/31 06:12:48;;;;;;;34.93;17.60;;;;;;;39.76;100.00;93343.44;1475713;88;22383;-84
2022/10/31 06:15:14;;;;;;;25.27;15.17;;;;;;;39.76;100.00;93325.39;1394665;88;22244;-85
2022/10/31 06:17:40;;;;;;;20.50;14.33;;;;;;;39.79;100.00;93213.68;1467756;88;21994;-86
2022/10/31 06:20:08;;;;;;;21.10;14.33;;;;;;;39.81;100.00;93117.03;1466490;88;22462;-83
2022/10/31 06:22:34;;;;;;;26.77;15.07;;;;;;;39.83;100.00;93020.34;1468277;88;21562;-82
2022/10/31 06:25:00;;;;;;;27.13;16.17;;;;;;;39.84;100.00;92947.33;1458012;88;21451;-84
2022/10/31 06:27:27;;;;;;;25.40;15.33;;;;;;;39.84;100.00;92958.75;1435550;90;21585;-81
2022/10/31 06:29:53;;;;;;;23.70;16.13;;;;;;;39.83;100.00;93023.20;1454338;87;21445;-86
2022/10/31 06:32:19;;;;;;;25.33;15.17;;;;;;;39.82;100.00;93078.21;1448446;88;21400;-81
2022/10/31 06:34:48;;;;;;;26.47;15.80;;;;;;;39.81;100.00;93108.58;1447257;90;21592;-86
2022/10/31 06:37:15;;;;;;;23.63;15.23;;;;;;;39.83;100.00;93031.77;1448526;88;21658;-82
2022/10/31 06:39:41;;;;;;;24.33;16.27;;;;;;;39.83;100.00;92987.22;1456185;88;21585;-79
2022/10/31 06:42:07;;;;;;;24.57;17.30;;;;;;;39.85;100.00;92921.80;1467956;88;21459;-92
2022/10/31 06:44:33;;;;;;;23.13;15.73;;;;;;;39.89;100.00;92706.37;1469727;88;21466;-88
2022/10/31 06:46:59;;;;;;;26.67;17.50;;;;;;;39.90;100.00;92654.13;1466723;88;21459;-80
2022/10/31 06:49:25;;;;;;;33.57;17.17;;;;;;;39.92;100.00;92554.39;1472464;88;22257;-81
2022/10/31 06:51:51;;;;;;;23.50;15.67;;;;;;;39.92;100.00;92539.20;1473814;88;21450;-83
2022/10/31 06:54:18;;;;;;;26.30;16.57;;;;;;;39.92;100.00;92578.16;1475556;87;22442;-82
2022/10/31 06:56:47;;;;;;;25.77;15.17;;;;;;;39.90;100.00;92665.55;1489873;87;21469;-83
2022/10/31 06:59:14;;;;;;;27.57;15.73;;;;;;;39.92;100.00;92589.58;1416771;90;22496;-84
2022/10/31 07:01:40;;;;;;;24.10;14.73;;;;;;;39.92;100.00;92553.47;1452031;88;21407;-82
2022/10/31 07:04:07;;;;;;;27.33;14.13;;;;;;;39.95;100.00;92438.47;1444453;89;22331;-83
2022/10/31 07:06:33;;;;;;;20.53;12.93;;;;;;;40.01;100.00;92146.41;1448073;88;21399;-82
2022/10/31 07:08:59;;;;;;;21.33;15.20;;;;;;;40.06;100.00;91870.20;1452167;88;21508;-86
2022/10/31 07:11:25;;;;;;;23.60;15.73;;;;;;;40.09;100.00;91689.11;1455704;88;22295;-83
2022/10/31 07:13:51;;;;;;;25.90;16.40;;;;;;;40.13;100.00;91458.28;1458553;88;21452;-84
2022/10/31 07:16:17;;;;;;;23.33;14.70;;;;;;;40.16;100.00;91286.55;1465639;88;21400;-86
2022/10/31 07:18:43;;;;;;;24.63;15.03;;;;;;;40.13;100.00;91462.20;1460023;88;22093;-92
2022/10/31 07:21:09;;;;;;;24.33;14.70;;;;;;;40.10;100.00;91617.67;1460738;88;21441;-84
2022/10/31 07:23:35;;;;;;;23.97;16.30;;;;;;;40.07;100.00;91749.31;1463523;88;21420;-93
2022/10/31 07:26:01;;;;;;;32.30;18.90;;;;;;;40.07;100.00;91743.61;1447749;88;21489;-86
2022/10/31 07:28:28;;;;;;;37.87;23.83;;;;;;;40.09;100.00;91667.36;1447090;89;22108;-91
2022/10/31 07:30:57;;;;;;;24.90;17.10;;;;;;;40.11;100.00;91541.48;1452337;88;21445;-90
2022/10/31 07:33:26;;;;;;;23.50;14.63;;;;;;;40.09;100.00;91647.41;1416486;88;22287;-91
2022/10/31 07:35:53;;;;;;;20.17;13.87;;;;;;;40.05;100.00;91903.60;1426023;88;21638;-90
2022/10/31 07:38:19;;;;;;;19.37;12.97;;;;;;;40.03;100.00;92029.33;1471239;88;21644;-87
2022/10/31 07:40:50;;;;;;;20.53;12.47;;;;;;;40.00;100.00;92137.89;1472414;88;21429;-86
2022/10/31 07:43:16;;;;;;;18.27;11.87;;;;;;;40.01;100.00;92100.75;1375610;88;21546;-92
2022/10/31 07:45:42;;;;;;;15.47;9.67;;;;;;;40.03;100.00;92015.07;1394797;88;21413;-91
2022/10/31 07:48:08;;;;;;;20.30;12.90;;;;;;;40.05;100.00;91869.33;1413948;88;21533;-92
2022/10/31 07:50:34;;;;;;;15.23;10.33;;;;;;;40.11;100.00;91558.58;1452277;88;22060;-86
2022/10/31 07:53:08;;;;;;;20.07;12.03;;;;;;;40.15;100.00;91373.38;1450058;90;21735;-93
2022/10/31 07:55:36;;;;;;;13.10;8.93;;;;;;;40.19;100.00;91116.98;1453543;90;21729;-91
2022/10/31 07:58:08;;;;;;;13.93;9.97;;;;;;;40.19;100.00;91149.89;1444804;88;21630;-90
2022/10/31 08:00:37;;;;;;;11.20;8.37;;;;;;;40.20;100.00;91100.19;1466712;88;21569;-92
2022/10/31 08:03:08;;;;;;;13.43;7.83;;;;;;;40.23;100.00;90946.33;1469190;88;21474;-91
2022/10/31 08:05:34;;;;;;;;;;;;;;;40.25;100.00;90837.16;1469539;88;21525;-90
2022/10/31 08:08:01;;;;;;;11.00;7.03;;;;;;;40.25;100.00;90868.69;1470499;88;20330;-89
2022/10/31 08:10:28;;;;;;;11.93;7.83;;;;;;;40.27;100.00;90750.92;1451658;88;21437;-88
2022/10/31 08:15:55;;;;;;;10.83;7.70;;;;;;;12.55;100.00;101160.62;1512239;85;27448;-88
2022/10/31 08:18:23;;;;;;;8.63;5.30;;;;;;;12.52;100.00;101165.73;1483756;87;21655;-85
2022/10/31 08:20:49;;;;;;;11.70;6.50;;;;;;;12.54;100.00;101163.74;1464785;87;21568;-86
2022/10/31 08:23:15;;;;;;;11.30;6.93;;;;;;;12.56;100.00;101167.10;1464218;87;21607;-91
2022/10/31 08:25:42;;;;;;;9.40;6.83;;;;;;;12.57;100.00;101168.80;1453864;89;22289;-86
2022/10/31 08:28:11;;;;;;;10.43;6.93;;;;;;;12.65;100.00;101170.72;1473014;88;22455;-85
2022/10/31 08:30:38;;;;;;;9.03;6.33;;;;;;;12.69;100.00;101169.47;1486263;87;21574;-93
2022/10/31 08:33:14;;;;;;;7.90;5.30;;;;;;;12.73;100.00;101162.05;1467790;88;21422;-86
2022/10/31 08:35:41;;;;;;;8.63;5.63;;;;;;;12.73;100.00;101162.87;1483337;88;21648;-87
2022/10/31 08:38:22;;;;;;;10.40;6.70;;;;;;;12.72;99.27;101171.01;1468853;88;21507;-89
2022/10/31 08:40:49;;;;;;;9.37;6.63;;;;;;;12.73;99.49;101174.00;1464948;88;22506;-92
2022/10/31 08:43:17;;;;;;;7.70;5.43;;;;;;;12.74;99.32;101174.33;1487659;87;21389;-92
2022/10/31 08:45:47;;;;;;;10.83;7.33;;;;;;;12.79;99.58;101173.42;1478520;87;21426;-91
2022/10/31 08:48:15;;;;;;;9.30;6.87;;;;;;;12.81;98.44;101176.78;1458893;88;22453;-93
2022/10/31 08:50:43;;;;;;;10.37;7.37;;;;;;;12.80;97.66;101175.95;1472790;87;22537;-90
2022/10/31 08:53:16;;;;;;;8.67;6.43;;;;;;;12.80;97.86;101172.42;1453434;89;22338;-92
2022/10/31 08:55:44;;;;;;;11.53;7.43;;;;;;;12.76;96.66;101172.38;1476233;88;22444;-92
2022/10/31 08:58:14;;;;;;;8.70;6.50;;;;;;;12.74;96.46;101175.66;1472883;87;22224;-92
2022/10/31 09:00:41;;;;;;;7.50;6.05;;;;;;;12.77;97.45;101166.08;1468581;88;21470;-93
2022/10/31 09:03:23;;;;;;;9.23;6.20;;;;;;;12.77;97.28;101166.91;1471623;88;21478;-88
2022/10/31 09:05:52;;;;;;;10.80;7.57;;;;;;;12.79;96.91;101166.28;1462043;88;22034;-95
2022/10/31 09:08:18;;;;;;;9.60;6.47;;;;;;;12.80;96.12;101171.09;1480202;87;21516;-92
2022/10/31 09:10:45;;;;;;;9.50;7.43;;;;;;;12.75;95.97;101166.23;1464511;88;21382;-93
2022/10/31 09:13:15;;;;;;;8.30;6.23;;;;;;;12.74;96.06;101169.02;1432101;89;21442;-89
2022/10/31 09:15:44;;;;;;;9.15;6.78;;;;;;;12.74;96.90;101175.16;1470018;88;21920;-94
2022/10/31 09:18:13;;;;;;;8.50;5.70;;;;;;;12.77;97.19;101175.38;1481358;88;21530;-84
2022/10/31 09:20:42;;;;;;;11.13;6.53;;;;;;;12.77;97.46;101179.36;1478990;87;21623;-87
2022/10/31 09:23:20;;;;;;;8.37;5.93;;;;;;;12.80;97.80;101179.06;1466834;88;21479;-91
2022/10/31 09:25:49;;;;;;;10.07;7.83;;;;;;;12.84;97.84;101177.81;1462631;88;21404;-94
2022/10/31 09:28:19;;;;;;;12.97;7.37;;;;;;;12.88;97.70;101173.88;1425426;88;21389;-94
2022/10/31 09:30:48;;;;;;;12.23;8.40;;;;;;;12.90;96.93;101171.92;1463452;87;21464;-88
2022/10/31 09:33:14;;;;;;;11.03;7.57;;;;;;;12.91;96.95;101176.24;1461779;87;21434;-89
2022/10/31 09:35:41;;;;;;;10.53;7.07;;;;;;;12.90;96.02;101179.06;1457922;88;21658;-93
2022/10/31 09:38:18;;;;;;;10.70;7.20;;;;;;;12.86;95.27;101187.81;1471035;87;22536;-95
2022/10/31 09:41:11;;;;;;;10.03;7.47;;;;;;;12.84;96.12;101182.63;1450833;87;21513;-87
2022/10/31 09:44:04;;;;;;;12.37;7.90;;;;;;;12.86;96.59;101185.16;1534301;90;22244;-91
2022/10/31 09:46:54;;;;;;;9.73;8.00;;;;;;;12.87;96.53;101182.34;1462749;88;21611;-86
2022/10/31 09:49:57;;;;;;;11.03;7.87;;;;;;;12.78;94.74;101186.36;1450674;88;21981;-90
2022/10/31 09:52:33;;;;;;;11.70;7.53;;;;;;;12.79;95.74;101189.36;1492492;90;21722;-87
2022/10/31 09:55:07;;;;;;;10.57;7.87;;;;;;;12.77;95.96;101192.14;1447255;89;21500;-90
2022/10/31 09:57:36;;;;;;;12.10;8.57;;;;;;;12.76;96.33;101189.64;1456432;88;21633;-92
2022/10/31 10:00:05;;;;;;;11.47;6.90;;;;;;;12.77;96.91;101188.16;1456484;88;21456;-90
2022/10/31 10:02:49;;;;;;;11.63;7.47;;;;;;;12.76;96.30;101188.31;1460353;87;21382;-88
2022/10/31 10:05:48;;;;;;;10.83;7.03;;;;;;;12.78;96.71;101189.02;1449784;88;22134;-92
2022/10/31 10:08:21;;;;;;;10.67;8.00;;;;;;;12.78;97.03;101187.69;1461875;88;21442;-89
2022/10/31 10:11:01;;;;;;;13.90;8.20;;;;;;;12.79;96.53;101192.02;1474156;88;21493;-91
2022/10/31 10:13:34;;;;;;;;;;;;;;;12.79;96.94;101189.36;1482602;87;21974;-93
2022/10/31 10:16:38;;;;;;;10.67;7.10;;;;;;;12.80;96.90;101187.90;1491289;88;20273;-91
2022/10/31 10:19:31;;;;;;;15.50;8.00;;;;;;;12.83;96.85;101190.73;1469917;87;21381;-91
2022/10/31 10:22:48;;;;;;;13.83;8.73;;;;;;;12.88;97.08;101188.48;1466068;87;21405;-95
2022/10/31 10:25:23;;;;;;;13.37;9.07;;;;;;;12.86;96.34;101194.45;1478556;88;21526;-88
2022/10/31 10:28:24;;;;;;;14.47;8.90;;;;;;;12.85;96.33;101184.80;1476551;88;21581;-87
2022/10/31 10:30:59;;;;;;;;;;;;;;;12.86;96.47;101185.16;1480536;88;21548;-88
2022/10/31 10:33:39;;;;;;;9.63;7.53;;;;;;;12.84;96.60;101181.80;1471546;88;20802;-91
2022/10/31 10:36:14;;;;;;;13.13;8.33;;;;;;;12.84;96.54;101185.78;1473221;87;21588;-89
2022/10/31 10:39:00;;;;;;;12.57;8.63;;;;;;;12.84;96.30;101185.78;1470714;88;21448;-91
2022/10/31 10:41:31;;;;;;;11.77;8.23;;;;;;;12.81;96.25;101184.25;1466561;88;21610;-90
2022/10/31 10:44:07;;;;;;;;;;;;;;;12.85;96.49;101182.14;1439282;89;21405;-92
2022/10/31 10:49:52;;;;;;;19.33;10.43;;;;;;;12.88;96.65;101181.84;1423849;91;21451;-88
2022/10/31 10:52:46;;;;;;;18.97;12.10;;;;;;;12.83;96.11;101181.44;1439763;89;22073;-89
2022/10/31 10:55:30;;;;;;;23.23;13.73;;;;;;;12.82;96.32;101178.44;1427112;91;21613;-88
2022/10/31 10:58:07;;;;;;;34.07;18.47;;;;;;;12.85;96.57;101170.19;1463937;90;21950;-87
2022/10/31 11:00:46;;;;;;;20.00;11.50;;;;;;;12.88;96.70;101173.88;1410132;91;21445;-92
2022/10/31 11:03:13;;;;;;;13.67;9.23;;;;;;;12.88;96.17;101170.72;1413258;91;21465;-94
2022/10/31 11:06:01;;;;;;;17.20;10.87;;;;;;;12.84;95.88;101171.17;1438909;89;21517;-91
2022/10/31 11:08:49;;;;;;;14.00;9.93;;;;;;;12.83;96.16;101162.84;1351531;91;22171;-94
2022/10/31 11:11:30;;;;;;;15.40;9.50;;;;;;;12.80;96.13;101156.48;1504576;90;22293;-87
2022/10/31 11:14:02;;;;;;;10.77;7.80;;;;;;;12.78;96.34;101159.31;1455027;90;21443;-91
2022/10/31 11:16:37;;;;;;;11.53;8.23;;;;;;;12.76;96.41;101151.13;1424020;91;21588;-90
2022/10/31 11:19:17;;;;;;;12.07;8.27;;;;;;;12.80;96.94;101154.70;1460415;88;21389;-92
2022/10/31 11:21:47;;;;;;;9.98;8.43;;;;;;;12.85;97.31;101155.57;1459148;88;21426;-89
2022/10/31 11:24:20;;;;;;;27.42;10.53;;;;;;;12.86;97.10;101152.78;1388932;88;21538;-84
2022/10/31 11:26:50;;;;;;;15.83;9.20;;;;;;;12.87;96.64;101146.48;1460618;88;21408;-92
2022/10/31 11:29:24;;;;;;;12.23;8.80;;;;;;;12.84;96.24;101149.92;1446394;89;22529;-93
2022/10/31 11:31:54;;;;;;;11.53;8.03;;;;;;;12.84;96.17;101157.39;1460684;88;22171;-86
2022/10/31 11:34:37;;;;;;;11.25;7.90;;;;;;;12.85;96.61;101155.57;1460210;88;21426;-92
2022/10/31 11:37:27;;;;;;;12.30;8.00;;;;;;;12.88;96.84;101157.44;1465939;88;21426;-90